Terminal Aerodrome Forecast
Issued by NWS Bismarck, ND

Home | Current Version | Previous Version | Graphics & Text | Print | Product List | Glossary On
Versions: 1 2 3 4 5 6 7 8 9 10 11 12 13 14 15 16 17 18 19
805
FTUS43 KBIS 112335
TAFBIS
TAF
KBIS 112335Z 1200/1224 35007KT P6SM BKN018 OVC090
     FM121400 01008KT P6SM SCT015
     FM121900 34012KT P6SM SCT025=

USA.gov is the U.S. government's official web portal to all federal, state and local government web resources and services.